createdAt,value
2022-10-22T00:00:17.436Z,86.92
2022-10-22T00:02:44.922Z,87.44
2022-10-22T00:05:12.013Z,87.84
2022-10-22T00:07:39.469Z,87.96
2022-10-22T00:10:07.938Z,87.53
2022-10-22T00:12:35.422Z,87.00
2022-10-22T00:15:03.759Z,87.19
2022-10-22T00:17:30.795Z,86.23
2022-10-22T00:19:57.985Z,85.05
2022-10-22T00:22:24.899Z,83.70
2022-10-22T00:24:51.925Z,84.33
2022-10-22T00:27:18.859Z,83.01
2022-10-22T00:29:45.990Z,85.90
2022-10-22T00:32:13.400Z,84.62
2022-10-22T00:34:40.409Z,84.72
2022-10-22T00:37:07.761Z,85.10
2022-10-22T00:39:34.742Z,86.20
2022-10-22T00:42:01.752Z,86.93
2022-10-22T00:45:09.453Z,84.90
2022-10-22T00:48:04.768Z,85.36
2022-10-22T00:50:59.751Z,84.62
2022-10-22T00:53:34.885Z,86.71
2022-10-22T00:56:02.382Z,85.42
2022-10-22T00:58:34.915Z,85.36
2022-10-22T01:01:02.567Z,84.87
2022-10-22T01:03:29.578Z,83.30
2022-10-22T01:06:00.242Z,84.79
2022-10-22T01:08:39.808Z,86.75
2022-10-22T01:11:29.920Z,83.90
2022-10-22T01:14:24.527Z,85.88
2022-10-22T01:17:25.092Z,85.48
2022-10-22T01:20:55.034Z,84.38
2022-10-22T01:24:05.775Z,87.39
2022-10-22T01:26:57.655Z,86.50
2022-10-22T01:29:41.216Z,85.91
2022-10-22T01:32:23.983Z,85.10
2022-10-22T01:34:56.371Z,86.37
2022-10-22T01:37:28.436Z,88.46
2022-10-22T01:39:59.717Z,86.66
2022-10-22T01:42:26.715Z,86.54
2022-10-22T01:44:53.789Z,85.62
2022-10-22T01:48:18.776Z,84.41
2022-10-22T01:51:13.177Z,85.81
2022-10-22T01:54:03.241Z,86.31
2022-10-22T01:56:41.135Z,87.89
2022-10-22T02:00:00.027Z,86.21
2022-10-22T02:03:10.131Z,83.78
2022-10-22T02:05:51.874Z,83.79
2022-10-22T02:08:29.465Z,84.24
2022-10-22T02:10:58.614Z,85.86
2022-10-22T02:13:53.846Z,83.82
2022-10-22T02:16:44.120Z,85.45
2022-10-22T02:19:16.004Z,87.39
2022-10-22T02:21:44.112Z,85.86
2022-10-22T02:24:11.251Z,87.04
2022-10-22T02:26:46.246Z,85.89
2022-10-22T02:29:28.010Z,86.38
2022-10-22T02:31:58.903Z,85.88
2022-10-22T02:34:31.274Z,85.40
2022-10-22T02:37:02.130Z,83.87
2022-10-22T02:39:31.358Z,87.01
2022-10-22T02:41:58.808Z,86.71
2022-10-22T02:44:25.726Z,84.59
2022-10-22T02:46:53.053Z,85.86
2022-10-22T02:49:20.197Z,86.18
2022-10-22T02:51:47.174Z,87.66
2022-10-22T02:54:14.829Z,85.50
2022-10-22T02:56:41.938Z,85.40
2022-10-22T02:59:09.196Z,85.21
2022-10-22T03:01:36.167Z,84.83
2022-10-22T03:04:03.659Z,86.22
2022-10-22T03:06:31.467Z,84.03
2022-10-22T03:08:58.513Z,81.93
2022-10-22T03:11:25.644Z,82.52
2022-10-22T03:13:52.880Z,82.79
2022-10-22T03:16:19.844Z,84.68
2022-10-22T03:18:47.110Z,86.58
2022-10-22T03:21:42.786Z,85.77
2022-10-22T03:24:20.118Z,84.97
2022-10-22T03:26:49.403Z,84.67
2022-10-22T03:29:17.090Z,84.71
2022-10-22T03:31:44.080Z,84.63
2022-10-22T03:34:13.402Z,83.45
2022-10-22T03:36:41.635Z,83.13
2022-10-22T03:39:09.616Z,82.81
2022-10-22T03:41:37.003Z,83.67
2022-10-22T03:44:05.522Z,86.20
2022-10-22T03:46:32.587Z,86.14
2022-10-22T03:48:59.912Z,83.10
2022-10-22T03:51:28.169Z,83.36
2022-10-22T03:53:55.874Z,84.74
2022-10-22T03:56:23.228Z,82.33
2022-10-22T03:58:50.240Z,82.50
2022-10-22T04:01:17.454Z,83.43
2022-10-22T04:03:44.567Z,81.86
2022-10-22T04:06:13.503Z,81.66
2022-10-22T04:08:43.091Z,82.40
2022-10-22T04:11:11.598Z,81.84
2022-10-22T04:13:39.252Z,82.57
2022-10-22T04:16:11.054Z,82.49
2022-10-22T04:18:38.750Z,84.49
2022-10-22T04:21:07.527Z,83.38
2022-10-22T04:23:34.682Z,84.73
2022-10-22T04:26:05.807Z,86.22
2022-10-22T04:28:34.849Z,86.73
2022-10-22T04:31:09.590Z,83.86
2022-10-22T04:33:36.884Z,82.90
2022-10-22T04:36:16.723Z,82.32
2022-10-22T04:38:46.890Z,82.69
2022-10-22T04:41:25.576Z,81.97
2022-10-22T04:43:54.791Z,82.04
2022-10-22T04:46:22.913Z,86.07
2022-10-22T04:48:52.185Z,84.46
2022-10-22T04:51:21.592Z,84.16
2022-10-22T04:53:49.154Z,84.80
2022-10-22T04:56:26.710Z,84.01
2022-10-22T04:59:04.197Z,83.68
2022-10-22T05:01:40.170Z,83.99
2022-10-22T05:04:23.582Z,86.03
2022-10-22T05:06:50.891Z,84.70
2022-10-22T05:09:20.563Z,83.21
2022-10-22T05:11:50.352Z,83.12
2022-10-22T05:14:22.380Z,82.51
2022-10-22T05:16:51.312Z,82.57
2022-10-22T05:19:24.130Z,82.50
2022-10-22T05:21:53.964Z,82.28
2022-10-22T05:24:21.598Z,83.11
2022-10-22T05:26:53.682Z,82.14
2022-10-22T05:29:21.881Z,83.46
2022-10-22T05:31:49.550Z,82.69
2022-10-22T05:34:17.079Z,84.91
2022-10-22T05:36:44.492Z,85.53
2022-10-22T05:39:12.180Z,85.86
2022-10-22T05:41:39.193Z,86.78
2022-10-22T05:44:06.392Z,86.50
2022-10-22T05:46:36.429Z,84.60
2022-10-22T05:49:06.777Z,84.61
2022-10-22T05:51:36.887Z,84.63
2022-10-22T05:54:07.992Z,83.21
2022-10-22T05:56:37.585Z,84.63
2022-10-22T05:59:04.808Z,83.43
2022-10-22T06:01:35.627Z,81.70
2022-10-22T06:04:06.570Z,82.63
2022-10-22T06:06:40.854Z,81.89
2022-10-22T06:09:34.500Z,85.13
2022-10-22T06:12:01.960Z,85.04
2022-10-22T06:14:29.395Z,85.33
2022-10-22T06:16:59.513Z,85.52
2022-10-22T06:19:27.135Z,86.18
2022-10-22T06:21:54.349Z,85.25
2022-10-22T06:24:21.685Z,82.10
2022-10-22T06:26:52.698Z,82.72
2022-10-22T06:29:19.848Z,81.81
2022-10-22T06:31:47.976Z,82.38
2022-10-22T06:34:18.808Z,82.25
2022-10-22T06:36:46.841Z,82.30
2022-10-22T06:39:17.010Z,81.67
2022-10-22T06:41:44.187Z,83.38
2022-10-22T06:44:16.053Z,83.61
2022-10-22T06:46:43.654Z,82.98
2022-10-22T06:49:17.131Z,84.93
2022-10-22T06:51:44.888Z,84.34
2022-10-22T06:54:12.467Z,84.14
2022-10-22T06:56:39.453Z,84.73
2022-10-22T06:59:06.704Z,81.78
2022-10-22T07:01:35.434Z,83.03
2022-10-22T07:04:03.869Z,82.92
2022-10-22T07:06:31.682Z,84.28
2022-10-22T07:09:00.529Z,84.57
2022-10-22T07:11:42.105Z,83.64
2022-10-22T07:14:09.973Z,85.89
2022-10-22T07:16:38.020Z,87.54
2022-10-22T07:19:05.837Z,88.22
2022-10-22T07:21:33.112Z,85.92
2022-10-22T07:24:00.266Z,86.20
2022-10-22T07:26:30.883Z,87.52
2022-10-22T07:29:00.425Z,89.48
2022-10-22T07:31:28.321Z,86.62
2022-10-22T07:33:55.601Z,85.69
2022-10-22T07:36:22.543Z,88.10
2022-10-22T07:38:56.829Z,85.68
2022-10-22T07:41:24.817Z,87.65
2022-10-22T07:43:51.925Z,86.68
2022-10-22T07:46:20.462Z,86.73
2022-10-22T07:48:47.724Z,86.58
2022-10-22T07:51:15.794Z,88.02
2022-10-22T07:53:43.330Z,89.33
2022-10-22T07:56:10.801Z,88.87
2022-10-22T07:58:38.079Z,89.19
2022-10-22T08:01:08.125Z,86.79
2022-10-22T08:03:35.670Z,85.40
2022-10-22T08:06:03.667Z,85.23
2022-10-22T08:08:30.954Z,84.76
2022-10-22T08:11:00.690Z,86.43
2022-10-22T08:13:30.738Z,88.28
2022-10-22T08:16:00.368Z,87.74
2022-10-22T08:18:28.551Z,85.29
2022-10-22T08:20:56.168Z,86.07
2022-10-22T08:23:26.087Z,86.87
2022-10-22T08:25:57.240Z,88.28
2022-10-22T08:28:24.541Z,84.05
2022-10-22T08:30:51.674Z,83.57
2022-10-22T08:33:18.624Z,82.77
2022-10-22T08:35:52.626Z,82.18
2022-10-22T08:38:20.526Z,83.48
2022-10-22T08:41:14.623Z,83.23
2022-10-22T08:44:02.605Z,82.24
2022-10-22T08:46:35.171Z,80.39
2022-10-22T08:51:41.390Z,82.29
2022-10-22T08:54:47.306Z,78.70
2022-10-22T08:57:39.543Z,82.78
2022-10-22T09:00:31.181Z,83.81
2022-10-22T09:03:09.751Z,84.23
2022-10-22T09:05:55.796Z,81.61
2022-10-22T09:08:23.846Z,82.67
2022-10-22T09:11:13.395Z,83.97
2022-10-22T09:13:43.313Z,80.77
2022-10-22T09:16:36.254Z,75.58
2022-10-22T09:19:06.310Z,78.39
2022-10-22T09:21:54.398Z,81.67
2022-10-22T09:24:39.311Z,82.71
2022-10-22T09:27:21.112Z,82.05
2022-10-22T09:29:48.794Z,81.13
2022-10-22T09:32:17.426Z,80.08
2022-10-22T09:34:46.702Z,76.86
2022-10-22T09:37:19.286Z,76.41
2022-10-22T09:39:52.966Z,74.26
2022-10-22T09:42:22.170Z,75.18
2022-10-22T09:44:55.334Z,74.64
2022-10-22T09:48:00.636Z,72.99
2022-10-22T09:50:45.967Z,71.38
2022-10-22T09:53:28.781Z,72.59
2022-10-22T09:56:00.494Z,71.63
2022-10-22T09:58:28.163Z,75.26
2022-10-22T10:01:00.526Z,77.43
2022-10-22T10:03:31.513Z,73.15
2022-10-22T10:06:04.757Z,72.05
2022-10-22T10:08:33.893Z,73.92
2022-10-22T10:11:29.240Z,72.14
2022-10-22T10:14:34.416Z,76.07
2022-10-22T10:18:10.565Z,71.50
2022-10-22T10:20:54.863Z,72.20
2022-10-22T10:23:55.035Z,75.25
2022-10-22T10:26:54.920Z,73.63
2022-10-22T10:29:48.843Z,71.67
2022-10-22T10:32:51.015Z,75.89
2022-10-22T10:36:03.412Z,72.41
2022-10-22T10:38:41.041Z,74.20
2022-10-22T10:41:26.979Z,71.47
2022-10-22T10:44:24.254Z,70.36
2022-10-22T10:47:31.619Z,69.61
2022-10-22T10:50:35.573Z,72.75
2022-10-22T10:53:24.267Z,67.87
2022-10-22T10:56:13.613Z,68.63
2022-10-22T10:59:17.183Z,71.20
2022-10-22T11:02:27.866Z,71.27
2022-10-22T11:05:28.147Z,71.03
2022-10-22T11:08:17.355Z,71.38
2022-10-22T11:10:50.367Z,70.29
2022-10-22T11:13:31.563Z,71.97
2022-10-22T11:16:15.074Z,68.60
2022-10-22T11:19:22.531Z,73.42
2022-10-22T11:22:26.776Z,68.98
2022-10-22T11:25:13.248Z,67.01
2022-10-22T11:27:53.610Z,70.76
2022-10-22T11:30:28.613Z,67.22
2022-10-22T11:33:01.786Z,66.19
2022-10-22T11:35:34.924Z,67.64
2022-10-22T11:38:05.460Z,68.47
2022-10-22T11:40:39.486Z,66.66
2022-10-22T11:43:25.766Z,67.26
2022-10-22T11:46:23.229Z,70.11
2022-10-22T11:49:19.603Z,71.22
2022-10-22T11:51:47.640Z,67.66
2022-10-22T11:54:44.410Z,68.81
2022-10-22T11:57:19.633Z,66.68
2022-10-22T12:00:01.399Z,69.95
2022-10-22T12:02:28.280Z,68.44
2022-10-22T12:05:23.335Z,65.85
2022-10-22T12:07:55.066Z,65.60
2022-10-22T12:10:29.426Z,65.24
2022-10-22T12:13:11.059Z,65.48
2022-10-22T12:15:53.294Z,68.15
2022-10-22T12:18:27.686Z,65.62
2022-10-22T12:20:55.269Z,66.22
2022-10-22T12:23:31.695Z,65.72
2022-10-22T12:25:58.730Z,67.82
2022-10-22T12:28:26.027Z,65.69
2022-10-22T12:30:52.977Z,67.41
2022-10-22T12:33:23.286Z,70.04
2022-10-22T12:35:54.068Z,65.11
2022-10-22T12:38:24.372Z,66.77
2022-10-22T12:40:55.038Z,64.26
2022-10-22T12:43:30.075Z,63.90
2022-10-22T12:45:59.112Z,63.13
2022-10-22T12:48:34.462Z,63.59
2022-10-22T12:51:04.725Z,66.33
2022-10-22T12:53:44.266Z,65.38
2022-10-22T12:56:16.180Z,64.21
2022-10-22T12:59:06.867Z,64.39
2022-10-22T13:01:40.010Z,61.96
2022-10-22T13:04:16.897Z,67.11
2022-10-22T13:06:50.173Z,65.39
2022-10-22T13:09:27.477Z,64.51
2022-10-22T13:12:04.895Z,64.04
2022-10-22T13:14:38.237Z,63.49
2022-10-22T13:17:39.052Z,64.46
2022-10-22T13:20:26.546Z,64.00
2022-10-22T13:23:00.544Z,64.70
2022-10-22T13:25:34.902Z,63.66
2022-10-22T13:28:25.229Z,63.74
2022-10-22T13:31:19.926Z,60.38
2022-10-22T13:33:55.071Z,60.87
2022-10-22T13:36:23.634Z,62.81
2022-10-22T13:38:51.321Z,62.46
2022-10-22T13:41:27.287Z,59.25
2022-10-22T13:43:55.229Z,62.98
2022-10-22T13:46:24.242Z,62.64
2022-10-22T13:48:55.276Z,63.74
2022-10-22T13:51:27.867Z,62.79
2022-10-22T13:53:54.874Z,58.74
2022-10-22T13:56:22.721Z,58.34
2022-10-22T13:58:49.830Z,61.86
2022-10-22T14:01:26.969Z,60.34
2022-10-22T14:04:01.941Z,61.56
2022-10-22T14:06:32.071Z,62.62
2022-10-22T14:09:06.313Z,61.62
2022-10-22T14:11:35.400Z,60.72
2022-10-22T14:14:04.970Z,60.89
2022-10-22T14:16:33.302Z,63.09
2022-10-22T14:19:02.475Z,60.21
2022-10-22T14:21:37.537Z,60.96
2022-10-22T14:24:07.090Z,61.01
2022-10-22T14:26:36.639Z,60.71
2022-10-22T14:29:09.301Z,58.61
2022-10-22T14:31:43.410Z,57.33
2022-10-22T14:34:13.855Z,60.67
2022-10-22T14:36:43.746Z,58.57
2022-10-22T14:39:11.919Z,60.23
2022-10-22T14:41:39.524Z,59.48
2022-10-22T14:44:06.549Z,60.67
2022-10-22T14:46:33.995Z,59.34
2022-10-22T14:49:00.958Z,58.44
2022-10-22T14:51:28.187Z,58.08
2022-10-22T14:53:55.155Z,57.54
2022-10-22T14:56:22.136Z,56.62
2022-10-22T14:58:50.533Z,57.43
2022-10-22T15:01:17.800Z,58.52
2022-10-22T15:03:45.057Z,58.31
2022-10-22T15:06:12.094Z,58.75
2022-10-22T15:08:39.654Z,59.56
2022-10-22T15:11:11.308Z,61.64
2022-10-22T15:13:39.291Z,60.93
2022-10-22T15:16:08.672Z,61.52
2022-10-22T15:18:36.468Z,63.41
2022-10-22T15:21:16.926Z,63.07
2022-10-22T15:23:43.941Z,63.33
2022-10-22T15:26:13.328Z,63.89
2022-10-22T15:28:41.729Z,64.31
2022-10-22T15:31:13.386Z,65.17
2022-10-22T15:33:42.746Z,64.95
2022-10-22T15:36:16.147Z,63.38
2022-10-22T15:38:43.200Z,62.65
2022-10-22T15:41:12.782Z,63.82
2022-10-22T15:43:39.744Z,62.47
2022-10-22T15:46:17.482Z,63.72
2022-10-22T15:48:45.721Z,61.78
2022-10-22T15:51:16.670Z,60.64
2022-10-22T15:53:44.391Z,61.82
2022-10-22T15:56:12.089Z,60.45
2022-10-22T15:58:39.875Z,62.92
2022-10-22T16:01:11.702Z,63.96
2022-10-22T16:03:40.133Z,62.23
2022-10-22T16:06:09.397Z,64.66
2022-10-22T16:08:37.735Z,67.38
2022-10-22T16:11:05.583Z,66.79
2022-10-22T16:13:32.627Z,67.73
2022-10-22T16:16:04.168Z,66.03
2022-10-22T16:18:31.447Z,65.76
2022-10-22T16:20:59.109Z,66.21
2022-10-22T16:23:26.133Z,66.91
2022-10-22T16:25:53.198Z,67.61
2022-10-22T16:28:20.463Z,67.07
2022-10-22T16:30:47.438Z,69.78
2022-10-22T16:33:14.611Z,69.31
2022-10-22T16:35:42.739Z,66.82
2022-10-22T16:38:11.212Z,66.25
2022-10-22T16:40:38.477Z,66.43
2022-10-22T16:43:06.255Z,67.49
2022-10-22T16:45:33.336Z,66.35
2022-10-22T16:48:00.781Z,66.79
2022-10-22T16:50:27.980Z,66.17
2022-10-22T16:52:55.043Z,66.89
2022-10-22T16:55:22.236Z,66.92
2022-10-22T16:57:53.716Z,66.67
2022-10-22T17:00:21.610Z,68.62
2022-10-22T17:02:55.463Z,68.89
2022-10-22T17:05:23.494Z,69.31
2022-10-22T17:07:50.961Z,69.69
2022-10-22T17:12:54.281Z,70.21
2022-10-22T17:15:21.246Z,70.14
2022-10-22T17:17:52.489Z,72.00
2022-10-22T17:20:20.263Z,72.61
2022-10-22T17:22:49.592Z,73.17
2022-10-22T17:25:32.648Z,71.72
2022-10-22T17:27:59.783Z,71.76
2022-10-22T17:30:28.368Z,71.05
2022-10-22T17:32:55.741Z,72.14
2022-10-22T17:35:22.963Z,70.76
2022-10-22T17:37:50.052Z,71.20
2022-10-22T17:40:17.038Z,72.24
2022-10-22T17:42:45.634Z,73.40
2022-10-22T17:45:12.597Z,75.66
2022-10-22T17:47:40.095Z,75.05
2022-10-22T17:50:08.183Z,72.65
2022-10-22T17:52:35.801Z,71.18
2022-10-22T17:55:03.560Z,72.12
2022-10-22T17:57:30.598Z,74.98
2022-10-22T17:59:57.645Z,71.75
2022-10-22T18:02:24.833Z,72.08
2022-10-22T18:04:52.599Z,72.15
2022-10-22T18:07:20.781Z,72.38
2022-10-22T18:09:48.150Z,73.20
2022-10-22T18:12:18.070Z,73.94
2022-10-22T18:14:46.986Z,74.72
2022-10-22T18:19:47.727Z,72.87
2022-10-22T18:22:14.815Z,74.05
2022-10-22T18:24:41.802Z,72.98
2022-10-22T18:27:08.997Z,71.83
2022-10-22T18:29:36.935Z,73.61
2022-10-22T18:32:09.416Z,75.12
2022-10-22T18:34:39.297Z,74.11
2022-10-22T18:37:06.475Z,76.09
2022-10-22T18:39:34.381Z,78.77
2022-10-22T18:42:06.364Z,76.64
2022-10-22T18:44:34.842Z,75.14
2022-10-22T18:47:02.234Z,77.46
2022-10-22T18:49:29.254Z,76.86
2022-10-22T18:51:56.199Z,78.65
2022-10-22T18:54:24.367Z,77.62
2022-10-22T18:56:53.330Z,78.05
2022-10-22T18:59:26.292Z,77.86
2022-10-22T19:01:55.438Z,78.48
2022-10-22T19:04:22.647Z,77.65
2022-10-22T19:06:50.146Z,77.93
2022-10-22T19:09:17.527Z,79.06
2022-10-22T19:11:45.675Z,79.36
2022-10-22T19:14:14.789Z,78.30
2022-10-22T19:16:41.928Z,76.61
2022-10-22T19:19:09.051Z,78.86
2022-10-22T19:21:38.117Z,77.05
2022-10-22T19:24:06.016Z,78.22
2022-10-22T19:26:33.074Z,79.19
2022-10-22T19:29:01.031Z,77.26
2022-10-22T19:31:32.445Z,77.58
2022-10-22T19:34:02.024Z,76.36
2022-10-22T19:36:32.473Z,76.75
2022-10-22T19:38:59.941Z,78.14
2022-10-22T19:41:29.246Z,80.01
2022-10-22T19:43:57.994Z,78.24
2022-10-22T19:46:26.947Z,79.20
2022-10-22T19:48:57.033Z,79.64
2022-10-22T19:51:29.686Z,79.33
2022-10-22T19:54:06.047Z,78.60
2022-10-22T19:56:35.835Z,79.13
2022-10-22T19:59:04.702Z,79.92
2022-10-22T20:01:32.008Z,75.84
2022-10-22T20:04:00.249Z,77.60
2022-10-22T20:06:27.554Z,77.41
2022-10-22T20:08:56.187Z,76.10
2022-10-22T20:11:28.304Z,78.52
2022-10-22T20:13:57.049Z,78.03
2022-10-22T20:16:28.530Z,78.51
2022-10-22T20:19:00.455Z,80.25
2022-10-22T20:21:27.499Z,79.82
2022-10-22T20:23:56.381Z,79.81
2022-10-22T20:26:24.575Z,80.63
2022-10-22T20:28:52.282Z,79.10
2022-10-22T20:31:21.757Z,78.24
2022-10-22T20:33:50.946Z,80.04
2022-10-22T20:36:21.855Z,80.77
2022-10-22T20:38:50.862Z,79.78
2022-10-22T20:41:21.573Z,81.95
2022-10-22T20:43:51.056Z,79.85
2022-10-22T20:46:24.619Z,80.30
2022-10-22T20:48:54.752Z,79.77
2022-10-22T20:51:22.334Z,79.42
2022-10-22T20:53:50.333Z,80.18
2022-10-22T20:56:18.187Z,79.07
2022-10-22T20:58:49.107Z,80.17
2022-10-22T21:01:24.428Z,82.26
2022-10-22T21:03:52.801Z,80.87
2022-10-22T21:06:23.007Z,77.96
2022-10-22T21:08:51.299Z,81.34
2022-10-22T21:11:19.609Z,81.15
2022-10-22T21:13:47.285Z,79.47
2022-10-22T21:16:17.607Z,79.85
2022-10-22T21:18:46.455Z,77.05
2022-10-22T21:21:14.303Z,75.98
2022-10-22T21:23:41.349Z,74.95
2022-10-22T21:26:08.697Z,77.42
2022-10-22T21:28:36.878Z,76.70
2022-10-22T21:31:07.364Z,79.75
2022-10-22T21:33:39.289Z,79.30
2022-10-22T21:36:09.226Z,77.91
2022-10-22T21:38:37.752Z,78.33
2022-10-22T21:41:07.535Z,76.65
2022-10-22T21:43:36.881Z,78.46
2022-10-22T21:46:16.463Z,76.13
2022-10-22T21:48:44.219Z,77.41
2022-10-22T21:51:15.982Z,76.96
2022-10-22T21:53:43.798Z,79.32
2022-10-22T21:56:21.011Z,77.85
2022-10-22T21:58:48.514Z,78.17
2022-10-22T22:01:16.874Z,79.81
2022-10-22T22:03:49.163Z,81.28
2022-10-22T22:06:21.244Z,78.99
2022-10-22T22:08:51.304Z,78.38
2022-10-22T22:11:25.027Z,78.67
2022-10-22T22:13:53.685Z,76.79
2022-10-22T22:16:27.286Z,78.51
2022-10-22T22:19:01.653Z,82.46
2022-10-22T22:21:29.734Z,78.88
2022-10-22T22:23:58.215Z,76.20
2022-10-22T22:26:29.916Z,80.20
2022-10-22T22:28:59.417Z,77.81
2022-10-22T22:31:31.111Z,82.32
2022-10-22T22:34:08.219Z,81.07
2022-10-22T22:36:42.011Z,80.47
2022-10-22T22:39:13.903Z,78.99
2022-10-22T22:41:42.439Z,79.47
2022-10-22T22:44:09.930Z,79.96
2022-10-22T22:46:37.416Z,80.62
2022-10-22T22:49:05.450Z,80.24
2022-10-22T22:51:33.260Z,80.02
2022-10-22T22:54:01.128Z,81.21
2022-10-22T22:56:31.732Z,79.20
2022-10-22T22:58:59.186Z,79.36
2022-10-22T23:01:33.871Z,81.54
2022-10-22T23:04:19.377Z,81.53
2022-10-22T23:06:46.632Z,80.19
2022-10-22T23:09:16.619Z,80.70
2022-10-22T23:11:45.498Z,82.75
2022-10-22T23:14:15.942Z,82.59
2022-10-22T23:16:47.653Z,80.65
2022-10-22T23:19:18.950Z,82.23
2022-10-22T23:21:53.786Z,81.66
2022-10-22T23:24:25.266Z,81.50
2022-10-22T23:26:54.733Z,82.34
2022-10-22T23:29:27.962Z,82.16
2022-10-22T23:31:58.533Z,81.73
2022-10-22T23:34:26.046Z,81.33
2022-10-22T23:36:54.531Z,82.14
2022-10-22T23:39:27.005Z,80.51
2022-10-22T23:41:54.579Z,80.48
2022-10-22T23:44:23.240Z,80.77
2022-10-22T23:46:51.089Z,79.79
2022-10-22T23:49:18.569Z,82.47
2022-10-22T23:51:45.775Z,80.21
2022-10-22T23:54:15.680Z,81.85
2022-10-22T23:56:42.686Z,82.16
2022-10-22T23:59:10.238Z,80.23
